createdAt,value
2018-12-16T00:00:34.997Z,2.00
2018-12-16T00:03:21.563Z,1.60
2018-12-16T00:06:04.688Z,1.77
2018-12-16T00:08:46.930Z,1.40
2018-12-16T00:11:29.701Z,1.80
2018-12-16T00:14:12.816Z,2.00
2018-12-16T00:16:55.616Z,1.90
2018-12-16T00:19:38.405Z,1.93
2018-12-16T00:22:21.357Z,1.97
2018-12-16T00:25:04.132Z,1.87
2018-12-16T00:27:47.137Z,2.00
2018-12-16T00:30:30.816Z,2.07
2018-12-16T00:33:14.088Z,1.40
2018-12-16T00:35:57.689Z,1.90
2018-12-16T00:38:39.931Z,1.70
2018-12-16T00:41:22.721Z,2.40
2018-12-16T00:44:05.761Z,2.30
2018-12-16T00:46:48.105Z,2.50
2018-12-16T00:49:30.713Z,1.73
2018-12-16T00:52:13.353Z,2.07
2018-12-16T00:54:56.658Z,1.50
2018-12-16T00:57:39.602Z,2.10
2018-12-16T01:00:22.066Z,1.87
2018-12-16T01:03:05.126Z,3.47
2018-12-16T01:05:47.389Z,2.33
2018-12-16T01:08:30.088Z,1.80
2018-12-16T01:11:12.874Z,1.90
2018-12-16T01:13:55.662Z,1.80
2018-12-16T01:16:39.433Z,2.07
2018-12-16T01:19:21.845Z,1.47
2018-12-16T01:22:04.658Z,1.70
2018-12-16T01:24:47.853Z,2.13
2018-12-16T01:27:30.774Z,1.90
2018-12-16T01:30:13.641Z,1.87
2018-12-16T01:32:56.219Z,1.97
2018-12-16T01:35:38.909Z,1.70
2018-12-16T01:38:21.553Z,1.70
2018-12-16T01:41:05.172Z,1.77
2018-12-16T01:43:48.201Z,2.03
2018-12-16T01:46:30.772Z,1.60
2018-12-16T01:49:13.716Z,1.77
2018-12-16T01:51:56.310Z,1.97
2018-12-16T01:54:39.066Z,1.70
2018-12-16T01:57:21.759Z,1.70
2018-12-16T02:00:04.583Z,1.90
2018-12-16T02:02:48.233Z,1.83
2018-12-16T02:05:31.073Z,1.73
2018-12-16T02:08:13.496Z,1.93
2018-12-16T02:10:55.953Z,1.80
2018-12-16T02:13:38.960Z,1.70
2018-12-16T02:16:21.209Z,11.60
2018-12-16T02:19:03.929Z,5.63
2018-12-16T02:21:46.769Z,3.43
2018-12-16T02:24:29.630Z,3.70
2018-12-16T02:27:11.929Z,3.40
2018-12-16T02:29:55.394Z,2.10
2018-12-16T02:32:39.093Z,2.07
2018-12-16T02:35:22.387Z,1.50
2018-12-16T02:38:04.619Z,1.87
2018-12-16T02:40:47.337Z,2.03
2018-12-16T02:43:30.205Z,1.50
2018-12-16T02:46:13.031Z,1.93
2018-12-16T02:48:55.781Z,2.20
2018-12-16T02:51:38.221Z,1.93
2018-12-16T02:54:20.906Z,1.93
2018-12-16T02:57:03.409Z,1.93
2018-12-16T02:59:46.314Z,2.07
2018-12-16T03:02:29.014Z,1.80
2018-12-16T03:05:12.111Z,2.10
2018-12-16T03:07:54.563Z,1.60
2018-12-16T03:10:37.330Z,2.27
2018-12-16T03:13:21.191Z,2.00
2018-12-16T03:16:03.719Z,1.90
2018-12-16T03:18:47.093Z,1.90
2018-12-16T03:21:29.276Z,1.90
2018-12-16T03:24:12.149Z,1.50
2018-12-16T03:26:55.062Z,1.50
2018-12-16T03:29:37.402Z,2.40
2018-12-16T03:32:19.951Z,1.60
2018-12-16T03:35:03.477Z,2.23
2018-12-16T03:37:46.451Z,2.87
2018-12-16T03:40:29.038Z,1.87
2018-12-16T03:43:12.802Z,1.90
2018-12-16T03:45:55.317Z,2.00
2018-12-16T03:48:38.047Z,2.53
2018-12-16T03:51:20.696Z,1.60
2018-12-16T03:54:03.428Z,2.00
2018-12-16T03:56:45.877Z,1.83
2018-12-16T03:59:28.842Z,2.53
2018-12-16T04:02:11.175Z,1.87
2018-12-16T04:04:55.139Z,2.10
2018-12-16T04:07:37.929Z,2.37
2018-12-16T04:10:20.289Z,2.40
2018-12-16T04:13:03.186Z,1.93
2018-12-16T04:15:45.779Z,2.60
2018-12-16T04:18:28.118Z,2.20
2018-12-16T04:21:10.918Z,2.20
2018-12-16T04:23:53.561Z,2.40
2018-12-16T04:26:36.183Z,2.80
2018-12-16T04:29:18.882Z,2.13
2018-12-16T04:32:01.922Z,2.30
2018-12-16T04:34:44.406Z,2.17
2018-12-16T04:37:27.105Z,1.97
2018-12-16T04:40:09.847Z,2.20
2018-12-16T04:42:52.867Z,2.13
2018-12-16T04:45:35.286Z,2.37
2018-12-16T04:48:17.851Z,2.00
2018-12-16T04:51:00.537Z,2.00
2018-12-16T04:53:43.125Z,2.10
2018-12-16T04:56:25.784Z,2.33
2018-12-16T04:59:09.090Z,2.33
2018-12-16T05:01:51.764Z,2.20
2018-12-16T05:04:34.251Z,2.40
2018-12-16T05:07:17.280Z,2.30
2018-12-16T05:10:09.644Z,2.67
2018-12-16T05:12:51.782Z,1.90
2018-12-16T05:15:34.592Z,2.30
2018-12-16T05:18:17.061Z,2.43
2018-12-16T05:21:00.180Z,2.50
2018-12-16T05:23:42.723Z,2.37
2018-12-16T05:26:25.452Z,2.30
2018-12-16T05:29:07.933Z,2.40
2018-12-16T05:31:51.164Z,2.00
2018-12-16T05:34:33.926Z,2.20
2018-12-16T05:37:16.352Z,2.60
2018-12-16T05:39:59.186Z,2.47
2018-12-16T05:42:41.829Z,1.97
2018-12-16T05:45:24.501Z,2.60
2018-12-16T05:48:06.917Z,2.13
2018-12-16T05:50:49.536Z,2.47
2018-12-16T05:53:32.862Z,2.20
2018-12-16T05:56:15.783Z,2.10
2018-12-16T05:58:57.925Z,2.60
2018-12-16T06:01:40.548Z,2.20
2018-12-16T06:04:23.249Z,1.80
2018-12-16T06:07:06.222Z,2.43
2018-12-16T06:09:48.798Z,2.03
2018-12-16T06:12:31.568Z,1.97
2018-12-16T06:15:14.269Z,2.50
2018-12-16T06:17:56.947Z,2.40
2018-12-16T06:20:39.760Z,2.30
2018-12-16T06:23:22.480Z,2.20
2018-12-16T06:26:05.100Z,2.20
2018-12-16T06:28:47.784Z,2.53
2018-12-16T06:31:30.433Z,2.27
2018-12-16T06:34:13.286Z,2.60
2018-12-16T06:36:55.965Z,2.40
2018-12-16T06:39:38.898Z,1.90
2018-12-16T06:42:21.604Z,2.30
2018-12-16T06:45:04.369Z,2.10
2018-12-16T06:47:47.016Z,2.83
2018-12-16T06:50:29.745Z,3.00
2018-12-16T06:53:12.910Z,2.67
2018-12-16T06:55:55.957Z,2.50
2018-12-16T06:58:39.742Z,2.73
2018-12-16T07:01:22.317Z,1.70
2018-12-16T07:04:05.286Z,2.07
2018-12-16T07:06:47.867Z,2.97
2018-12-16T07:09:30.293Z,2.20
2018-12-16T07:12:13.122Z,2.10
2018-12-16T07:14:55.741Z,2.90
2018-12-16T07:17:39.120Z,2.30
2018-12-16T07:20:22.246Z,2.03
2018-12-16T07:23:04.926Z,1.93
2018-12-16T07:25:47.626Z,2.40
2018-12-16T07:28:30.219Z,2.30
2018-12-16T07:31:13.016Z,2.10
2018-12-16T07:33:55.560Z,2.10
2018-12-16T07:36:38.718Z,2.37
2018-12-16T07:39:21.760Z,2.30
2018-12-16T07:42:04.560Z,2.67
2018-12-16T07:44:47.322Z,2.37
2018-12-16T07:47:29.813Z,2.70
2018-12-16T07:50:13.248Z,2.00
2018-12-16T07:52:57.119Z,2.10
2018-12-16T07:55:40.136Z,2.00
2018-12-16T07:58:24.297Z,2.07
2018-12-16T08:01:06.666Z,2.07
2018-12-16T08:03:49.457Z,3.10
2018-12-16T08:06:31.985Z,2.27
2018-12-16T08:09:14.570Z,2.00
2018-12-16T08:11:57.300Z,1.83
2018-12-16T08:14:39.868Z,2.37
2018-12-16T08:17:22.621Z,2.30
2018-12-16T08:20:06.172Z,2.43
2018-12-16T08:22:49.192Z,2.10
2018-12-16T08:25:31.861Z,2.53
2018-12-16T08:28:38.272Z,2.60
2018-12-16T08:31:21.238Z,2.17
2018-12-16T08:34:04.475Z,2.13
2018-12-16T08:36:46.827Z,2.67
2018-12-16T08:39:30.071Z,2.33
2018-12-16T08:42:14.025Z,2.53
2018-12-16T08:44:57.584Z,2.03
2018-12-16T08:47:40.546Z,2.33
2018-12-16T08:50:32.265Z,2.30
2018-12-16T08:53:14.429Z,2.10
2018-12-16T08:55:58.018Z,2.60
2018-12-16T08:58:41.432Z,2.10
2018-12-16T09:01:25.189Z,1.97
2018-12-16T09:04:08.235Z,3.10
2018-12-16T09:06:51.061Z,2.30
2018-12-16T09:09:33.514Z,2.13
2018-12-16T09:12:17.003Z,2.37
2018-12-16T09:15:00.602Z,1.90
2018-12-16T09:17:43.969Z,2.20
2018-12-16T09:20:26.518Z,2.00
2018-12-16T09:23:09.265Z,2.40
2018-12-16T09:25:51.773Z,2.57
2018-12-16T09:28:34.407Z,2.50
2018-12-16T09:31:18.480Z,2.07
2018-12-16T09:34:00.745Z,2.67
2018-12-16T09:36:43.630Z,2.17
2018-12-16T09:39:26.692Z,1.90
2018-12-16T09:42:09.385Z,2.40
2018-12-16T09:44:52.035Z,2.50
2018-12-16T09:47:35.546Z,2.30
2018-12-16T09:50:18.755Z,2.13
2018-12-16T09:53:01.422Z,2.10
2018-12-16T09:55:43.934Z,2.53
2018-12-16T09:58:26.859Z,2.37
2018-12-16T10:01:09.254Z,2.60
2018-12-16T10:03:51.795Z,2.40
2018-12-16T10:06:35.584Z,4.17
2018-12-16T10:09:19.448Z,2.10
2018-12-16T10:12:02.858Z,2.50
2018-12-16T10:14:48.471Z,2.57
2018-12-16T10:17:32.610Z,2.80
2018-12-16T10:20:15.362Z,3.60
2018-12-16T10:23:01.778Z,2.60
2018-12-16T10:25:49.426Z,2.77
2018-12-16T10:28:33.189Z,2.63
2018-12-16T10:31:23.221Z,2.20
2018-12-16T10:34:11.552Z,2.60
2018-12-16T10:36:55.988Z,2.23
2018-12-16T10:39:39.410Z,1.97
2018-12-16T10:42:23.123Z,2.50
2018-12-16T10:45:07.429Z,2.27
2018-12-16T10:47:50.997Z,1.90
2018-12-16T10:50:33.614Z,1.90
2018-12-16T10:53:16.438Z,1.60
2018-12-16T10:56:00.604Z,1.80
2018-12-16T10:58:43.681Z,1.63
2018-12-16T11:01:30.809Z,1.70
2018-12-16T11:04:13.134Z,1.57
2018-12-16T11:06:57.470Z,1.47
2018-12-16T11:09:40.582Z,1.70
2018-12-16T11:12:23.244Z,1.40
2018-12-16T11:15:05.742Z,1.80
2018-12-16T11:17:48.156Z,1.60
2018-12-16T11:20:30.874Z,1.60
2018-12-16T11:23:13.175Z,1.50
2018-12-16T11:25:58.420Z,1.60
2018-12-16T11:28:40.615Z,1.70
2018-12-16T11:31:23.178Z,1.90
2018-12-16T11:34:05.838Z,1.70
2018-12-16T11:36:49.857Z,1.30
2018-12-16T11:39:32.546Z,1.30
2018-12-16T11:42:15.994Z,1.50
2018-12-16T11:44:58.998Z,1.30
2018-12-16T11:47:42.880Z,1.30
2018-12-16T11:50:26.607Z,1.30
2018-12-16T11:53:08.866Z,1.40
2018-12-16T11:55:51.648Z,1.30
2018-12-16T11:58:34.086Z,1.47
2018-12-16T12:01:16.732Z,1.90
2018-12-16T12:03:59.860Z,1.73
2018-12-16T12:06:42.899Z,1.70
2018-12-16T12:09:26.077Z,2.53
2018-12-16T12:12:10.567Z,1.80
2018-12-16T12:17:55.455Z,1.63
2018-12-16T12:20:45.457Z,1.83
2018-12-16T12:23:29.101Z,1.63
2018-12-16T12:44:39.052Z,3.63
2018-12-16T12:47:45.940Z,3.53
2018-12-16T12:50:30.269Z,3.90
2018-12-16T12:53:13.743Z,3.90
2018-12-16T12:56:00.607Z,3.10
2018-12-16T12:58:52.439Z,3.10
2018-12-16T13:01:37.875Z,2.40
2018-12-16T13:04:37.611Z,2.47
2018-12-16T13:10:47.030Z,2.37
2018-12-16T13:14:14.338Z,3.10
2018-12-16T13:17:44.860Z,3.80
2018-12-16T13:20:46.523Z,3.00
2018-12-16T13:24:06.771Z,3.00
2018-12-16T13:26:59.110Z,2.67
2018-12-16T13:30:01.785Z,2.80
2018-12-16T13:33:07.042Z,2.67
2018-12-16T13:47:26.843Z,3.00
2018-12-16T13:50:42.722Z,2.47
2018-12-16T13:53:26.056Z,2.57
2018-12-16T14:10:15.420Z,3.30
2018-12-16T14:16:23.929Z,3.37
2018-12-16T14:19:23.547Z,3.80
2018-12-16T14:28:12.392Z,2.70
2018-12-16T14:30:57.638Z,3.17
2018-12-16T14:33:41.390Z,3.70
2018-12-16T14:36:28.555Z,3.27
2018-12-16T14:39:11.554Z,3.80
2018-12-16T14:41:54.640Z,3.60
2018-12-16T14:44:42.664Z,3.63
2018-12-16T14:47:35.608Z,4.47
2018-12-16T14:50:32.373Z,3.60
2018-12-16T14:53:28.404Z,3.13
2018-12-16T14:56:16.594Z,3.00
2018-12-16T14:59:02.187Z,3.20
2018-12-16T15:02:02.859Z,3.10
2018-12-16T15:04:56.016Z,3.00
2018-12-16T15:14:56.018Z,3.80
2018-12-16T15:17:42.957Z,3.30
2018-12-16T15:20:25.367Z,4.33
2018-12-16T15:23:12.366Z,3.57
2018-12-16T15:26:30.906Z,3.13
2018-12-16T15:29:16.558Z,3.07
2018-12-16T15:32:02.958Z,3.07
2018-12-16T15:34:51.627Z,3.20
2018-12-16T15:37:47.100Z,4.53
2018-12-16T15:43:37.339Z,3.27
2018-12-16T15:46:22.071Z,3.77
2018-12-16T15:49:07.991Z,4.23
2018-12-16T15:51:59.345Z,4.17
2018-12-16T15:54:45.103Z,2.77
2018-12-16T15:57:50.066Z,2.80
2018-12-16T16:00:35.149Z,2.80
2018-12-16T16:03:27.058Z,3.70
2018-12-16T16:06:12.029Z,2.60
2018-12-16T16:09:07.769Z,2.70
2018-12-16T16:14:48.694Z,2.80
2018-12-16T16:17:33.850Z,3.20
2018-12-16T16:20:16.587Z,2.83
2018-12-16T16:36:38.211Z,3.37
2018-12-16T16:39:30.766Z,3.13
2018-12-16T16:42:18.280Z,2.90
2018-12-16T16:45:29.548Z,3.40
2018-12-16T16:54:17.747Z,3.00
2018-12-16T16:57:14.411Z,3.00
2018-12-16T17:00:11.603Z,5.30
2018-12-16T17:03:13.847Z,4.97
2018-12-16T17:06:14.109Z,2.53
2018-12-16T17:09:25.792Z,3.33
2018-12-16T17:15:45.850Z,3.17
2018-12-16T17:18:30.534Z,3.10
2018-12-16T17:24:27.039Z,3.30
2018-12-16T17:27:16.627Z,3.20
2018-12-16T17:30:03.474Z,3.43
2018-12-16T17:32:53.675Z,3.30
2018-12-16T17:35:59.124Z,3.10
2018-12-16T17:38:51.330Z,3.00
2018-12-16T17:41:54.514Z,3.20
2018-12-16T17:51:16.121Z,3.53
2018-12-16T17:54:04.147Z,3.50
2018-12-16T18:50:10.433Z,2.20
2018-12-16T18:52:54.970Z,2.80
2018-12-16T18:55:40.849Z,3.07
2018-12-16T19:01:36.955Z,2.77
2018-12-16T19:10:16.002Z,7.23
2018-12-16T19:13:27.906Z,2.10
2018-12-16T19:16:12.431Z,2.20
2018-12-16T19:19:41.800Z,1.80
2018-12-16T19:22:27.253Z,2.53
2018-12-16T19:25:20.229Z,3.10
2018-12-16T19:28:17.928Z,2.80
2018-12-16T19:39:08.747Z,2.33
2018-12-16T19:44:57.152Z,3.40
2018-12-16T19:47:50.422Z,2.13
2018-12-16T19:50:49.399Z,2.13
2018-12-16T19:53:40.118Z,2.57
2018-12-16T20:07:39.860Z,3.60
2018-12-16T20:11:19.910Z,3.60
2018-12-16T20:14:15.407Z,2.87
2018-12-16T20:17:03.206Z,4.53
2018-12-16T20:19:58.055Z,5.30
2018-12-16T20:22:43.103Z,2.40
2018-12-16T20:25:28.779Z,2.50
2018-12-16T20:28:17.135Z,1.97
2018-12-16T20:31:01.310Z,2.57
2018-12-16T20:37:21.279Z,2.03
2018-12-16T20:40:07.650Z,1.87
2018-12-16T20:42:54.771Z,1.80
2018-12-16T20:45:42.757Z,1.90
2018-12-16T20:48:29.841Z,1.70
2018-12-16T20:51:30.069Z,3.47
2018-12-16T20:54:18.132Z,1.70
2018-12-16T20:57:02.929Z,1.43
2018-12-16T20:59:50.897Z,1.40
2018-12-16T21:02:38.058Z,1.70
2018-12-16T21:05:29.773Z,1.67
2018-12-16T21:08:13.339Z,1.60
2018-12-16T21:11:00.733Z,1.43
2018-12-16T21:13:48.822Z,1.97
2018-12-16T21:16:42.265Z,1.83
2018-12-16T21:19:31.143Z,1.80
2018-12-16T21:22:19.323Z,1.85
2018-12-16T21:25:04.542Z,2.00
2018-12-16T21:27:47.675Z,1.40
2018-12-16T21:34:56.433Z,1.70
2018-12-16T21:37:44.992Z,1.80
2018-12-16T21:40:28.489Z,1.87
2018-12-16T21:44:04.395Z,2.23
2018-12-16T21:46:47.777Z,1.67
2018-12-16T21:49:33.476Z,1.73
2018-12-16T21:55:27.416Z,1.67
2018-12-16T21:58:13.147Z,1.70
2018-12-16T22:00:57.966Z,1.30
2018-12-16T22:03:46.245Z,1.10
2018-12-16T22:06:28.405Z,1.40
2018-12-16T22:09:13.149Z,1.10
2018-12-16T22:11:59.665Z,0.90
2018-12-16T22:14:47.082Z,1.10
2018-12-16T22:17:53.292Z,1.20
2018-12-16T22:20:36.034Z,1.00
2018-12-16T22:23:18.513Z,1.13
2018-12-16T22:26:01.205Z,0.80
2018-12-16T22:28:43.934Z,0.90
2018-12-16T22:31:27.538Z,0.87
2018-12-16T22:34:10.097Z,1.07
2018-12-16T22:36:52.810Z,0.80
2018-12-16T22:39:38.281Z,0.70
2018-12-16T22:42:21.103Z,0.90
2018-12-16T22:45:03.455Z,1.00
2018-12-16T22:47:46.584Z,1.00
2018-12-16T22:50:28.681Z,1.00
2018-12-16T22:53:11.320Z,0.90
2018-12-16T22:55:54.405Z,1.00
2018-12-16T22:58:37.161Z,0.83
2018-12-16T23:01:20.226Z,1.07
2018-12-16T23:04:03.030Z,1.13
2018-12-16T23:06:45.613Z,1.37
2018-12-16T23:09:29.897Z,1.43
2018-12-16T23:12:12.027Z,0.90
2018-12-16T23:14:54.867Z,0.80
2018-12-16T23:17:37.424Z,1.13
2018-12-16T23:20:22.786Z,0.90
2018-12-16T23:23:05.306Z,1.00
2018-12-16T23:25:47.727Z,0.90
2018-12-16T23:28:30.393Z,1.00
2018-12-16T23:31:13.169Z,0.90
2018-12-16T23:33:56.441Z,1.00
2018-12-16T23:36:39.631Z,0.80
2018-12-16T23:39:22.322Z,1.00
2018-12-16T23:42:04.850Z,1.07
2018-12-16T23:44:47.760Z,0.80
2018-12-16T23:47:30.248Z,0.90
2018-12-16T23:50:13.125Z,1.10
2018-12-16T23:52:56.356Z,1.00
2018-12-16T23:55:40.311Z,0.80
2018-12-16T23:58:23.197Z,0.90
